• Join FlightAware (Why Join?)
  • Login
  • US Flag 
01:08AM EDT


 

Airport Tracker/Info


-or-


 

Live Flight TrackerFlight Track Log ✈ KCE1 ✈ 01-Jul-2013 ✈ CYSJ - TBPB / BGI

Flight Track Log - Related Links

Times and Time Zones

All times are in EDT time to prevent confusion due to time zone crossing. See the KCE1 flight status page for this flight to view local times or setup timezone preferences in your user account.

Time Position Orientation Groundspeed Altitude Reporting Facility
EDT Latitude Longitude Course Direction KTS MPH feet Rate Location/Type
05:06PM 45.0640 -65.8980 166° South 311 358 12,300  Level FlightAware
05:06PM 45.0060 -65.8780 166° South 315 362 14,700 3,060 Climbing FlightAware
05:07PM 44.9450 -65.8570 166° South 336 387 16,600 2,340 Climbing FlightAware
05:08PM 44.8830 -65.8360 167° South 362 417 17,900 1,920 Climbing FlightAware
05:09PM 44.8130 -65.8120 166° South 381 438 19,300 1,920 Climbing FlightAware
05:09PM 44.7430 -65.7880 166° South 393 452 20,600 1,980 Climbing FlightAware
05:10PM 44.6700 -65.7640 167° South 403 464 22,000 1,980 Climbing FlightAware
05:11PM 44.5970 -65.7390 166° South 408 470 23,300 1,920 Climbing FlightAware
05:11PM 44.5210 -65.7130 166° South 412 474 24,700 1,980 Climbing FlightAware
05:12PM 44.4380 -65.6860 167° South 412 474 26,200 1,980 Climbing FlightAware
05:13PM 44.3690 -65.6630 167° South 410 472 27,400 1,920 Climbing FlightAware
05:13PM 44.2880 -65.6360 167° South 408 470 28,900 1,980 Climbing FlightAware
05:14PM 44.2070 -65.6090 167° South 405 466 30,400 1,920 Climbing FlightAware
05:15PM 44.1310 -65.5840 167° South 406 467 31,700 1,260 Climbing FlightAware
05:15PM 44.0820 -65.5670 166° South 32,100 960 Climbing FlightAware
05:16PM 43.9500 -65.5240 167° South 439 505 33,300 1,140 Climbing FlightAware
05:17PM 43.8680 -65.4970 167° South 447 514 34,000 420 Climbing FlightAware
05:18PM 43.7850 -65.4680 166° South 447 514 34,000 660 Level FlightAware
05:19PM 43.6850 -65.4360 167° South 460 529 35,100 720 Climbing FlightAware
05:19PM 43.6040 -65.4080 166° South 460 529 35,100  Level FlightAware
05:20PM 43.5450 -65.3880 166° South 460 529 35,100  Level FlightAware
05:21PM 43.4800 -65.3660 166° South 460 529 35,100  Level FlightAware
05:21PM 43.3960 -65.3370 166° South 460 529 35,100  Level FlightAware
05:22PM 43.3310 -65.3140 166° South 460 529 35,100  Level FlightAware
05:23PM 43.2480 -65.2860 166° South 460 529 35,100  Level FlightAware
05:23PM 43.1830 -65.2640 166° South 460 529 35,100  Level FlightAware
05:24PM 43.0990 -65.2350 166° South 460 529 35,100  Level FlightAware
05:25PM 43.0370 -65.2140 166° South 460 529 35,100  Level FlightAware
05:25PM 42.9740 -65.1930 166° South 460 529 35,100  Level FlightAware
05:26PM 42.8690 -65.1570 166° South 460 529 35,100  Level FlightAware
05:27PM 42.8040 -65.1350 166° South 460 529 35,100  Level FlightAware
05:28PM 42.7390 -65.1130 166° South 460 529 35,100 2,100 Level FlightAware
05:29PM 42.3800 -65.0210 169° South 43,000 2,520 Climbing FlightAware
05:31PM 42.2000 -64.9667 169° South 440 506 43,000  Level Moncton Center
05:32PM 42.0833 -64.9167 162° South 440 506 43,000  Level Moncton Center
05:33PM 41.9667 -64.8833 168° South 440 506 43,000  Level Moncton Center
05:34PM 41.8500 -64.8667 174° South 440 506 43,000  Level Moncton Center
05:34PM 41.9167 -64.8833 181° South 439 505 43,000  Level New York Oceanic (ODAPS)
05:36PM 41.6000 -64.8833 181° South 440 506 43,000  Level Moncton Center
05:37PM 41.4833 -64.8667 174° South 440 506 43,000  Level Moncton Center
05:38PM 41.3500 -64.8833 185° South 440 506 43,000  Level Moncton Center
05:39PM 41.2333 -64.8833 180° South 450 518 43,000  Level Moncton Center
05:40PM 41.1000 -64.8833 180° South 450 518 43,000  Level Moncton Center
05:41PM 40.9833 -64.8833 180° South 450 518 43,000  Level Moncton Center
05:42PM 40.8667 -64.9000 186° South 450 518 43,000  Level Moncton Center
05:43PM 40.7333 -64.9000 180° South 450 518 43,000  Level Moncton Center
05:44PM 40.6167 -64.9000 180° South 450 518 43,000  Level Moncton Center
05:45PM 40.5000 -64.9000 180° South 450 518 43,000  Level Moncton Center
05:47PM 40.2777 -64.9057 181° South  Level FlightAware Approximate
05:54PM 39.4289 -64.9271 181° South  Level FlightAware Approximate
05:55PM 39.3077 -64.9302 181° South  Level FlightAware Approximate
05:56PM 39.1864 -64.9332 181° South  Level FlightAware Approximate
05:57PM 39.0652 -64.9362 181° South  Level FlightAware Approximate
05:58PM 38.9439 -64.9391 181° South  Level FlightAware Approximate
05:59PM 38.8227 -64.9421 181° South  Level FlightAware Approximate
06:00PM 38.7014 -64.9451 181° South  Level FlightAware Approximate
06:01PM 38.5802 -64.9481 181° South  Level FlightAware Approximate
06:02PM 38.4597 -64.9601 191° South  Level FlightAware Approximate
06:02PM 38.5000 -64.9667 190° South 439 505 43,000  Level New York Oceanic (ODAPS)
06:03PM 38.3407 -64.9900 191° South  Level FlightAware Approximate
06:04PM 38.2217 -65.0198 191° South  Level FlightAware Approximate
06:05PM 38.1027 -65.0495 191° South  Level FlightAware Approximate
06:06PM 37.9837 -65.0791 191° South  Level FlightAware Approximate
06:07PM 37.8644 -65.1069 190° South  Level FlightAware Approximate
06:08PM 37.7451 -65.1343 190° South  Level FlightAware Approximate
06:09PM 37.5375 -65.1855 190° South 439 505 43,000  Level FlightAware Transoceanic
06:10PM 37.4171 -65.2124 190° South 439 505 43,000  Level FlightAware Transoceanic
06:11PM 37.2968 -65.2393 190° South 439 505 43,000  Level FlightAware Transoceanic
06:12PM 37.1764 -65.2661 190° South 439 505 43,000  Level FlightAware Transoceanic
06:13PM 37.0561 -65.2927 190° South 439 505 43,000  Level FlightAware Transoceanic
06:14PM 36.9357 -65.3194 190° South 439 505 43,000  Level FlightAware Transoceanic
06:15PM 36.8153 -65.3459 190° South 439 505 43,000  Level FlightAware Transoceanic
06:16PM 36.6950 -65.3723 190° South 439 505 43,000  Level FlightAware Transoceanic
06:17PM 36.5746 -65.3987 190° South 439 505 43,000  Level FlightAware Transoceanic
06:18PM 36.4542 -65.4249 190° South 439 505 43,000  Level FlightAware Transoceanic
06:19PM 36.3338 -65.4511 190° South 439 505 43,000  Level FlightAware Transoceanic
06:20PM 36.2134 -65.4773 190° South 439 505 43,000  Level FlightAware Transoceanic
06:21PM 36.0930 -65.5033 190° South 439 505 43,000  Level FlightAware Transoceanic
06:22PM 35.9726 -65.5293 190° South 439 505 43,000  Level FlightAware Transoceanic
06:23PM 35.8522 -65.5551 190° South 439 505 43,000  Level FlightAware Transoceanic
06:24PM 35.7318 -65.5809 190° South 439 505 43,000  Level FlightAware Transoceanic
06:25PM 35.6113 -65.6066 190° South 439 505 43,000  Level FlightAware Transoceanic
06:26PM 35.4909 -65.6323 190° South 439 505 43,000  Level FlightAware Transoceanic
06:27PM 35.3704 -65.6578 190° South 439 505 43,000  Level FlightAware Transoceanic
06:27PM 35.2500 -65.6833 169° South 431 496 43,000  Level New York Oceanic (ODAPS)
06:28PM 35.2500 -65.6833 169° South 439 505 43,000  Level FlightAware Transoceanic
06:29PM 35.1250 -65.6523 169° South 439 505 43,000  Level FlightAware Transoceanic
06:30PM 35.0000 -65.6214 169° South 439 505 43,000  Level FlightAware Transoceanic
06:31PM 34.8749 -65.5905 169° South 439 505 43,000  Level FlightAware Transoceanic
06:32PM 34.7499 -65.5598 169° South 439 505 43,000  Level FlightAware Transoceanic
06:33PM 34.6249 -65.5291 169° South 439 505 43,000  Level FlightAware Transoceanic
06:34PM 34.4105 -65.4767 169° South 431 496 43,000  Level FlightAware Transoceanic
06:35PM 34.2905 -65.4476 169° South 431 496 43,000  Level FlightAware Transoceanic
06:36PM 34.1705 -65.4185 169° South 431 496 43,000  Level FlightAware Transoceanic
06:37PM 34.0506 -65.3895 169° South 431 496 43,000  Level FlightAware Transoceanic
06:38PM 33.9306 -65.3605 169° South 431 496 43,000  Level FlightAware Transoceanic
06:39PM 33.8106 -65.3317 169° South 431 496 43,000  Level FlightAware Transoceanic
06:40PM 33.6906 -65.3029 169° South 431 496 43,000  Level FlightAware Transoceanic
06:41PM 33.5706 -65.2743 169° South 431 496 43,000  Level FlightAware Transoceanic
06:42PM 33.4506 -65.2457 169° South 431 496 43,000  Level FlightAware Transoceanic
06:43PM 33.3306 -65.2171 169° South 431 496 43,000  Level FlightAware Transoceanic
06:44PM 33.2105 -65.1887 169° South 431 496 43,000  Level FlightAware Transoceanic
06:45PM 33.0905 -65.1603 169° South 431 496 43,000  Level FlightAware Transoceanic
06:46PM 32.9705 -65.1320 169° South 431 496 43,000  Level FlightAware Transoceanic
06:47PM 32.8504 -65.1038 169° South 431 496 43,000  Level FlightAware Transoceanic
06:48PM 32.7304 -65.0757 169° South 431 496 43,000  Level FlightAware Transoceanic
06:49PM 32.6103 -65.0476 169° South 431 496 43,000  Level FlightAware Transoceanic
06:50PM 32.4903 -65.0196 169° South 431 496 43,000  Level FlightAware Transoceanic
06:51PM 32.3702 -64.9917 169° South 431 496 43,000  Level FlightAware Transoceanic
06:52PM 32.2501 -64.9639 169° South 431 496 43,000  Level FlightAware Transoceanic
06:53PM 32.1301 -64.9361 169° South 431 496 43,000  Level FlightAware Transoceanic
06:54PM 32.0100 -64.9084 169° South 431 496 43,000  Level FlightAware Transoceanic
06:55PM 31.8899 -64.8808 169° South 431 496 43,000  Level FlightAware Transoceanic
06:56PM 31.7698 -64.8533 169° South 431 496 43,000  Level FlightAware Transoceanic
06:57PM 31.6497 -64.8258 169° South 431 496 43,000  Level FlightAware Transoceanic
06:58PM 31.4520 -64.7807 169° South 449 517 43,000  Level FlightAware Transoceanic
06:59PM 31.3294 -64.7529 169° South 449 517 43,000  Level FlightAware Transoceanic
07:00PM 31.2068 -64.7251 169° South 449 517 43,000  Level FlightAware Transoceanic
07:01PM 31.0841 -64.6974 169° South 449 517 43,000  Level FlightAware Transoceanic
07:02PM 30.9615 -64.6697 169° South 449 517 43,000  Level FlightAware Transoceanic
07:03PM 30.8388 -64.6422 169° South 449 517 43,000  Level FlightAware Transoceanic
07:04PM 30.7162 -64.6147 169° South 449 517 43,000  Level FlightAware Transoceanic
07:05PM 30.5935 -64.5872 169° South 449 517 43,000  Level FlightAware Transoceanic
07:06PM 30.4709 -64.5599 169° South 449 517 43,000  Level FlightAware Transoceanic
07:07PM 30.3482 -64.5326 169° South 449 517 43,000  Level FlightAware Transoceanic
07:08PM 30.2255 -64.5054 169° South 449 517 43,000  Level FlightAware Transoceanic
07:09PM 30.1028 -64.4782 169° South 449 517 43,000  Level FlightAware Transoceanic
07:10PM 29.9802 -64.4511 169° South 449 517 43,000  Level FlightAware Transoceanic
07:11PM 29.8575 -64.4241 169° South 449 517 43,000  Level FlightAware Transoceanic
07:12PM 29.7348 -64.3971 169° South 449 517 43,000  Level FlightAware Transoceanic
07:13PM 29.6121 -64.3702 169° South 449 517 43,000  Level FlightAware Transoceanic
07:14PM 29.4894 -64.3434 169° South 449 517 43,000  Level FlightAware Transoceanic
07:15PM 29.3667 -64.3167 169° South 449 517 43,000  Level FlightAware Transoceanic
07:15PM 29.3667 -64.3167 169° South 447 514 43,000  Level New York Oceanic (ODAPS)
07:16PM 29.2420 -64.2883 169° South 449 517 43,000  Level FlightAware Transoceanic
07:17PM 29.1173 -64.2600 169° South 449 517 43,000  Level FlightAware Transoceanic
07:18PM 28.9925 -64.2318 169° South 449 517 43,000  Level FlightAware Transoceanic
07:19PM 28.8678 -64.2036 169° South 449 517 43,000  Level FlightAware Transoceanic
07:20PM 28.7431 -64.1755 169° South 449 517 43,000  Level FlightAware Transoceanic
07:21PM 28.6184 -64.1475 169° South 449 517 43,000  Level FlightAware Transoceanic
07:22PM 28.3897 -64.0962 169° South 447 514 43,000  Level FlightAware Transoceanic
07:23PM 28.2675 -64.0690 169° South 447 514 43,000  Level FlightAware Transoceanic
07:24PM 28.1454 -64.0418 169° South 447 514 43,000  Level FlightAware Transoceanic
07:25PM 28.0232 -64.0146 169° South 447 514 43,000  Level FlightAware Transoceanic
07:26PM 27.9011 -63.9875 169° South 447 514 43,000  Level FlightAware Transoceanic
07:27PM 27.7789 -63.9605 169° South 447 514 43,000  Level FlightAware Transoceanic
07:28PM 27.6567 -63.9336 169° South 447 514 43,000  Level FlightAware Transoceanic
07:29PM 27.5346 -63.9067 169° South 447 514 43,000  Level FlightAware Transoceanic
07:30PM 27.4124 -63.8798 169° South 447 514 43,000  Level FlightAware Transoceanic
07:31PM 27.2902 -63.8530 169° South 447 514 43,000  Level FlightAware Transoceanic
07:32PM 27.1680 -63.8263 169° South 447 514 43,000  Level FlightAware Transoceanic
07:33PM 27.0458 -63.7996 169° South 447 514 43,000  Level FlightAware Transoceanic
07:34PM 26.9236 -63.7730 169° South 447 514 43,000  Level FlightAware Transoceanic
07:35PM 26.8014 -63.7465 169° South 447 514 43,000  Level FlightAware Transoceanic
07:36PM 26.6792 -63.7200 169° South 447 514 43,000  Level FlightAware Transoceanic
07:37PM 26.5569 -63.6936 169° South 447 514 43,000  Level FlightAware Transoceanic
07:38PM 26.4347 -63.6672 169° South 447 514 43,000  Level FlightAware Transoceanic
07:39PM 26.3125 -63.6409 169° South 447 514 43,000  Level FlightAware Transoceanic
07:40PM 26.1903 -63.6146 169° South 447 514 43,000  Level FlightAware Transoceanic
07:41PM 26.0680 -63.5884 169° South 447 514 43,000  Level FlightAware Transoceanic
07:42PM 25.9458 -63.5622 169° South 447 514 43,000  Level FlightAware Transoceanic
07:43PM 25.8235 -63.5361 169° South 447 514 43,000  Level FlightAware Transoceanic
07:44PM 25.7013 -63.5101 169° South 447 514 43,000  Level FlightAware Transoceanic
07:45PM 25.5790 -63.4841 169° South 447 514 43,000  Level FlightAware Transoceanic
07:46PM 25.4568 -63.4582 169° South 447 514 43,000  Level FlightAware Transoceanic
07:47PM 25.3345 -63.4323 169° South 447 514 43,000  Level FlightAware Transoceanic
07:48PM 25.2122 -63.4064 169° South 447 514 43,000  Level FlightAware Transoceanic
07:49PM 25.0900 -63.3806 169° South 447 514 43,000  Level FlightAware Transoceanic
07:50PM 24.9677 -63.3549 169° South 447 514 43,000  Level FlightAware Transoceanic
07:51PM 24.8454 -63.3292 169° South 447 514 43,000  Level FlightAware Transoceanic
07:52PM 24.7231 -63.3036 169° South 447 514 43,000  Level FlightAware Transoceanic
07:53PM 24.6008 -63.2780 169° South 447 514 43,000  Level FlightAware Transoceanic
07:54PM 24.4785 -63.2525 169° South 447 514 43,000  Level FlightAware Transoceanic
07:55PM 24.3562 -63.2270 169° South 447 514 43,000  Level FlightAware Transoceanic
07:56PM 24.2339 -63.2016 169° South 447 514 43,000  Level FlightAware Transoceanic
07:57PM 24.1116 -63.1762 169° South 447 514 43,000  Level FlightAware Transoceanic
07:58PM 23.9893 -63.1509 169° South 447 514 43,000  Level FlightAware Transoceanic
07:59PM 23.8670 -63.1256 169° South 447 514 43,000  Level FlightAware Transoceanic
08:00PM 23.7447 -63.1003 169° South 447 514 43,000  Level FlightAware Transoceanic
08:01PM 23.6223 -63.0751 169° South 447 514 43,000  Level FlightAware Transoceanic
08:02PM 23.5000 -63.0500 169° South 447 514 43,000  Level FlightAware Transoceanic
08:03PM 23.3764 -63.0245 169° South 447 514 43,000  Level FlightAware Transoceanic
08:03PM 23.5000 -63.0500 169° South 449 517 43,000  Level New York Oceanic (ODAPS)
08:04PM 23.2529 -62.9990 169° South 447 514 43,000  Level FlightAware Transoceanic
08:05PM 23.1293 -62.9736 169° South 447 514 43,000  Level FlightAware Transoceanic
08:06PM 23.0057 -62.9482 169° South 447 514 43,000  Level FlightAware Transoceanic
08:07PM 22.8821 -62.9229 169° South 447 514 43,000  Level FlightAware Transoceanic
08:08PM 22.7585 -62.8976 169° South 447 514 43,000  Level FlightAware Transoceanic
08:09PM 22.6350 -62.8724 169° South 449 517 43,000  Level FlightAware Transoceanic
08:10PM 22.5114 -62.8472 169° South 449 517 43,000  Level FlightAware Transoceanic
08:11PM 22.3878 -62.8220 169° South 449 517 43,000  Level FlightAware Transoceanic
08:12PM 22.2642 -62.7969 169° South 449 517 43,000  Level FlightAware Transoceanic
08:13PM 22.1406 -62.7719 169° South 449 517 43,000  Level FlightAware Transoceanic
08:14PM 22.0169 -62.7469 169° South 449 517 43,000  Level FlightAware Transoceanic
08:15PM 21.8933 -62.7219 169° South 449 517 43,000  Level FlightAware Transoceanic
08:16PM 21.7697 -62.6970 169° South 449 517 43,000  Level FlightAware Transoceanic
08:17PM 21.6461 -62.6721 169° South 449 517 43,000  Level FlightAware Transoceanic
08:18PM 21.5225 -62.6472 169° South 449 517 43,000  Level FlightAware Transoceanic
08:19PM 21.3988 -62.6224 169° South 449 517 43,000  Level FlightAware Transoceanic
08:20PM 21.2752 -62.5977 169° South 449 517 43,000  Level FlightAware Transoceanic
08:21PM 21.1516 -62.5730 169° South 449 517 43,000  Level FlightAware Transoceanic
08:22PM 21.0279 -62.5483 169° South 449 517 43,000  Level FlightAware Transoceanic
08:23PM 20.9043 -62.5237 169° South 449 517 43,000  Level FlightAware Transoceanic
08:24PM 20.7806 -62.4991 169° South 449 517 43,000  Level FlightAware Transoceanic
08:25PM 20.6570 -62.4745 169° South 449 517 43,000  Level FlightAware Transoceanic
08:26PM 20.5333 -62.4500 170° South 449 517 43,000  Level FlightAware Transoceanic
08:27PM 20.4119 -62.4263 170° South 449 517 43,000  Level FlightAware Transoceanic
08:28PM 20.2906 -62.4027 170° South 449 517 43,000  Level FlightAware Transoceanic
08:29PM 20.1692 -62.3791 170° South 449 517 43,000  Level FlightAware Transoceanic
08:29PM 20.2000 -62.3833 170° South 620 713 43,000  Level San Juan Center
08:30PM 20.0478 -62.3555 170° South 449 517 43,000  Level FlightAware Transoceanic
08:30PM 20.0833 -62.3500 165° South 510 587 43,000  Level San Juan Center
08:31PM 19.9264 -62.3320 170° South 449 517 43,000  Level FlightAware Transoceanic
08:32PM 19.8050 -62.3084 170° South 449 517 43,000  Level FlightAware Transoceanic
08:32PM 19.9667 -62.3333 172° South 460 529 43,000  Level San Juan Center
08:33PM 19.6835 -62.2850 170° South 449 517 43,000  Level FlightAware Transoceanic
08:33PM 19.8500 -62.3167 172° South 430 495 43,000  Level San Juan Center
08:34PM 19.5621 -62.2616 170° South 449 517 43,000  Level FlightAware Transoceanic
08:34PM 19.7333 -62.2833 165° South 450 518 43,000  Level San Juan Center
08:35PM 19.4407 -62.2382 170° South 449 517 43,000  Level FlightAware Transoceanic
08:35PM 19.6000 -62.2667 173° South 440 506 43,000  Level San Juan Center
08:36PM 19.4667 -62.2333 167° South 470 541 43,000  Level San Juan Center
08:37PM 19.3500 -62.2167 172° South 450 518 43,000  Level San Juan Center
08:39PM 19.1167 -62.1667 169° South 430 495 43,000  Level San Juan Center
08:40PM 19.0000 -62.1500 172° South 440 506 43,000  Level San Juan Center
08:42PM 18.7500 -62.1000 169° South 460 529 43,000  Level San Juan Center
08:43PM 18.6167 -62.0833 173° South 470 541 43,000  Level San Juan Center
08:44PM 18.5000 -62.0500 165° South 450 518 43,000  Level San Juan Center
08:45PM 18.3833 -62.0333 172° South 450 518 43,000  Level San Juan Center
08:46PM 18.2500 -62.0000 167° South 460 529 43,000  Level San Juan Center
08:52PM 17.5480 -61.7330 167° South 43,000  Level FlightAware
08:53PM 17.4800 -61.6960 153° Southeast 456 525 43,000  Level FlightAware
08:53PM 17.3900 -61.6510 154° Southeast 457 526 43,000  Level FlightAware
08:54PM 17.3000 -61.6050 154° Southeast 458 527 43,000  Level FlightAware
08:55PM 17.2170 -61.5620 154° Southeast 458 527 43,000  Level FlightAware
08:55PM 17.1470 -61.5260 154° Southeast 458 527 43,000  Level FlightAware
08:56PM 17.0630 -61.4840 154° Southeast 459 528 43,000  Level FlightAware
08:57PM 16.9750 -61.4380 153° Southeast 460 529 43,000  Level FlightAware
08:58PM 16.8970 -61.3980 154° Southeast 460 529 43,000  Level FlightAware
08:58PM 16.8080 -61.3530 154° Southeast 461 531 43,000  Level FlightAware
08:59PM 16.7310 -61.3140 154° Southeast 462 532 43,000 240 Level FlightAware
09:00PM 16.6080 -61.2510 154° Southeast 463 533 43,400 240 Climbing FlightAware
09:00PM 16.5300 -61.2110 154° Southeast 464 534 43,400  Level FlightAware
09:01PM 16.4520 -61.1710 154° Southeast 464 534 43,400  Level FlightAware
09:02PM 16.3660 -61.1270 154° Southeast 465 535 43,400  Level FlightAware
09:03PM 16.2710 -61.0790 154° Southeast 466 536 43,400  Level FlightAware
09:03PM 16.1890 -61.0380 154° Southeast 467 537 43,400  Level FlightAware
09:04PM 16.1120 -60.9990 154° Southeast 467 537 43,400  Level FlightAware
09:05PM 16.0220 -60.9530 154° Southeast 468 539 43,400 -300 Level FlightAware
09:05PM 15.9800 -60.9320 154° Southeast 468 539 43,000 -300 Descending FlightAware
09:06PM 15.9060 -60.8950 154° Southeast 469 540 43,000  Level FlightAware
09:07PM 15.8300 -60.8560 154° Southeast 468 539 43,000  Level FlightAware
09:08PM 15.7530 -60.8170 154° Southeast 468 539 43,000  Level FlightAware
09:08PM 15.6770 -60.7790 154° Southeast 468 539 43,000  Level FlightAware
09:09PM 15.5890 -60.7350 154° Southeast 467 537 43,000  Level FlightAware
09:10PM 15.5100 -60.6950 154° Southeast 465 535 43,000  Level FlightAware
09:10PM 15.4310 -60.6550 154° Southeast 463 533 43,000  Level FlightAware
09:11PM 15.3560 -60.6170 154° Southeast 462 532 43,000  Level FlightAware
09:12PM 15.2900 -60.5840 154° Southeast 462 532 43,000 -420 Level FlightAware
09:12PM 15.2020 -60.5400 154° Southeast 461 531 42,500 -900 Descending FlightAware
09:13PM 15.1350 -60.5060 154° Southeast 454 522 41,800 -1,500 Descending FlightAware
09:14PM 15.0400 -60.4580 154° Southeast 457 526 40,400 -1,800 Descending FlightAware
09:14PM 14.9680 -60.4220 154° Southeast 459 528 39,200 -1,860 Descending FlightAware
09:15PM 14.8990 -60.3880 155° Southeast 457 526 37,900 -1,920 Descending FlightAware
09:16PM 14.8140 -60.3460 154° Southeast 451 519 36,500 -1,920 Descending FlightAware
09:16PM 14.7460 -60.3120 154° Southeast 450 518 35,300 -2,040 Descending FlightAware
09:17PM 14.6540 -60.2650 154° Southeast 453 521 33,600 -2,160 Descending FlightAware
09:18PM 14.5640 -60.2210 155° Southeast 462 532 31,900 -2,040 Descending FlightAware
09:19PM 14.5110 -60.1940 154° Southeast 462 532 30,900 -2,160 Descending FlightAware
09:19PM 14.4300 -60.1540 154° Southeast 458 527 29,300 -2,220 Descending FlightAware
09:20PM 14.3590 -60.1190 154° Southeast 457 526 27,900 -1,980 Descending FlightAware
09:21PM 14.2480 -60.0680 156° South 455 524 25,900 -2,100 Descending FlightAware
09:22PM 14.1800 -60.0440 161° South 452 520 24,600 -2,040 Descending FlightAware
09:22PM 14.0990 -60.0140 160° South 445 512 23,100 -2,160 Descending FlightAware
09:23PM 14.0240 -59.9880 161° South 429 494 21,600 -1,500 Descending FlightAware
09:24PM 13.9670 -59.9680 161° South 422 486 21,200 -2,040 Descending FlightAware
09:24PM 13.8990 -59.9450 162° South 404 465 18,900 -1,800 Descending FlightAware
09:25PM 13.8390 -59.9240 161° South 405 466 18,800 -120 Descending FlightAware
09:26PM 13.7850 -59.9050 161° South 405 466 18,800  Level FlightAware
09:26PM 13.7310 -59.8860 161° South 405 466 18,800  Level FlightAware
09:27PM 13.6590 -59.8600 161° South 405 466 18,800  Level FlightAware
09:28PM 13.6040 -59.8410 161° South 405 466 18,800 -4,020 Level FlightAware
09:29PM 13.2860 -59.7440 163° South 6,900 -4,860 Descending FlightAware
09:31PM 13.1810 -59.7080 162° South 298 343 4,300 -2,040 Descending FlightAware
09:31PM 13.1470 -59.6840 145° Southeast 289 333 3,300 -2,160 Descending FlightAware
09:32PM 13.1180 -59.6650 147° Southeast 283 326 2,400 -1,500 Descending FlightAware
09:32PM 13.0890 -59.6380 138° Southeast 259 298 2,000 -660 Descending FlightAware
09:32PM 13.0760 -59.6220 130° Southeast 231 266 1,900 -180 Descending FlightAware
09:33PM 13.0630 -59.6050 128° Southeast 207 238 1,900 -300 Level FlightAware
09:33PM 13.0550 -59.5870 115° Southeast 196 226 1,700 -900 Descending FlightAware
09:34PM 13.0580 -59.5630 83° East 159 183 1,200 -900 Descending FlightAware
09:34PM 13.0620 -59.5440 78° East 126 145 800 -720 Descending FlightAware
09:34PM 13.0650 -59.5300 78° East 122 140 600 -600 Descending FlightAware
09:35PM 13.0690 -59.5150 75° East 114 131 300 -600 Descending FlightAware
09:35PM 13.0700 -59.5100 78° East 116 133 200  Descending FlightAware
09:36PM 13.0740 -59.4950 75° East 68 78  Descending FlightAware
09:36PM 13.0760 -59.4880 74° East 68 78 60 Level FlightAware
09:39PM 13.0746 -59.4925 90° East  Level Estimated
09:40PM 13.0746 -59.4925 90° East  Level Estimated
09:41PM 13.0746 -59.4925 90° East  Level Estimated
09:42PM 13.0746 -59.4925 90° East  Level Estimated
09:43PM 13.0746 -59.4925 90° East  Level Estimated
09:44PM 13.0746 -59.4925 90° East  Level Estimated
09:45PM 13.0746 -59.4925 90° East  Level Estimated
09:46PM 13.0746 -59.4925 90° East  Level Estimated
09:47PM 13.0746 -59.4925 90° East  Level Estimated
09:48PM 13.0746 -59.4925 90° East  Level Estimated
09:49PM 13.0746 -59.4925 90° East  Level Estimated
09:50PM 13.0746 -59.4925 90° East  Level Estimated
09:51PM 13.0746 -59.4925 90° East  Level Estimated
09:52PM 13.0746 -59.4925 90° East  Level Estimated
09:53PM 13.0746 -59.4925 90° East  Level Estimated
09:54PM 13.0746 -59.4925 90° East  Level Estimated
09:55PM 13.0746 -59.4925 90° East  Level Estimated
09:56PM 13.0746 -59.4925 90° East  Level Estimated
09:57PM 13.0746 -59.4925 90° East  Level Estimated
09:58PM 13.0746 -59.4925 90° East  Level Estimated
09:59PM 13.0746 -59.4925 90° East  Level Estimated
10:00PM 13.0746 -59.4925 90° East  Level Estimated
10:01PM 13.0746 -59.4925 90° East  Level Estimated
10:02PM 13.0746 -59.4925 90° East  Level Estimated
10:03PM 13.0746 -59.4925 90° East  Level Estimated
10:04PM 13.0746 -59.4925 90° East  Level Estimated
10:05PM 13.0746 -59.4925 90° East  Level Estimated
10:06PM 13.0746 -59.4925 90° East  Level Estimated
10:07PM 13.0746 -59.4925 90° East  Level Estimated
10:08PM 13.0746 -59.4925 90° East  Level Estimated
10:09PM 13.0746 -59.4925 90° East  Level Estimated
10:10PM 13.0746 -59.4925 90° East  Level Estimated
10:11PM 13.0746 -59.4925 90° East  Level Estimated
10:12PM 13.0746 -59.4925 90° East  Level Estimated
10:13PM 13.0746 -59.4925 90° East  Level Estimated
10:14PM 13.0746 -59.4925 90° East  Level Estimated
10:15PM 13.0746 -59.4925 90° East  Level Estimated
10:15PM 13.0830 -59.4480 80° East 207 238 2,600  Level FlightAware
10:16PM 13.0890 -59.4190 78° East 223 257 4,500 3,660 Climbing FlightAware
10:16PM 13.1010 -59.3970 61° Northeast 236 272 5,900 3,540 Climbing FlightAware
10:17PM 13.1200 -59.3900 20° North 249 287 7,000 3,840 Climbing FlightAware
10:17PM 13.1520 -59.3950 351° North 267 307 8,600 3,480 Climbing FlightAware
10:18PM 13.1980 -59.4320 322° Northwest 296 341 11,200 3,060 Climbing FlightAware
10:19PM 13.2360 -59.4810 309° West 318 366 13,200 2,460 Climbing FlightAware
10:19PM 13.2830 -59.5410 309° West 350 403 14,900 2,280 Climbing FlightAware
10:20PM 13.3280 -59.5950 311° West 358 412 16,700 2,280 Climbing FlightAware
10:21PM 13.3670 -59.6410 311° West 368 423 17,900 1,920 Climbing FlightAware
10:22PM 13.4460 -59.6920 328° Northwest 384 442 19,600 1,860 Climbing FlightAware
10:22PM 13.5140 -59.7300 331° Northwest 400 460 20,900 1,320 Climbing FlightAware
10:23PM 13.5720 -59.7630 331° Northwest 404 465 21,600 1,440 Climbing FlightAware
10:24PM 13.5730 -59.7630 360° North 411 473 23,200 960 Climbing FlightAware
10:25PM 13.6400 -59.8020 331° Northwest 411 473 23,200 720 Level FlightAware
10:26PM 13.7280 -59.8510 332° Northwest 413 475 24,500 2,460 Climbing FlightAware
10:26PM 13.8410 -59.9140 332° Northwest 414 476 27,400 2,220 Climbing FlightAware
10:27PM 13.8970 -59.9460 331° Northwest 415 478 27,700 1,260 Climbing FlightAware
10:28PM 13.9930 -60.0000 331° Northwest 440 506 29,300 1,620 Climbing FlightAware
10:28PM 14.0450 -60.0290 332° Northwest 449 517 29,900 1,140 Climbing FlightAware
10:29PM 14.1320 -60.0790 331° Northwest 459 528 30,900 1,260 Climbing FlightAware
10:30PM 14.2370 -60.1380 331° Northwest 468 539 32,000 1,260 Climbing FlightAware
10:31PM 14.3000 -60.1730 332° Northwest 471 542 32,600 1,260 Climbing FlightAware
10:31PM 14.3940 -60.2240 332° Northwest 476 548 33,600 1,200 Climbing FlightAware
10:32PM 14.4560 -60.2540 335° Northwest 475 547 34,200 1,140 Climbing FlightAware
10:33PM 14.5580 -60.3020 336° Northwest 476 548 35,200 1,320 Climbing FlightAware
10:33PM 14.6470 -60.3440 335° Northwest 475 547 36,200 1,080 Climbing FlightAware
10:34PM 14.6980 -60.3680 336° Northwest 475 547 36,700 960 Climbing FlightAware
10:35PM 14.7860 -60.4100 335° Northwest 472 543 37,600 1,080 Climbing FlightAware
10:35PM 14.8480 -60.4400 335° Northwest 469 540 38,200 1,200 Climbing FlightAware
10:36PM 14.9430 -60.4850 335° Northwest 463 533 39,200 1,200 Climbing FlightAware
10:37PM 15.0250 -60.5240 335° Northwest 454 522 40,000 1,140 Climbing FlightAware
10:38PM 15.1220 -60.5700 335° Northwest 442 509 41,000 1,140 Climbing FlightAware
10:40PM 14.9484 -60.5398 152° Southeast  Level FlightAware Approximate
10:41PM 14.8503 -60.4853 152° Southeast  Level FlightAware Approximate
10:42PM 14.7523 -60.4308 152° Southeast  Level FlightAware Approximate
10:43PM 14.6539 -60.3770 154° Southeast  Level FlightAware Approximate
10:44PM 14.5555 -60.3233 150° Southeast  Level FlightAware Approximate
10:45PM 14.4599 -60.2645 149° Southeast  Level FlightAware Approximate
10:46PM 14.3642 -60.2057 151° Southeast  Level FlightAware Approximate
10:47PM 14.2669 -60.1501 151° Southeast  Level FlightAware Approximate
10:48PM 14.1695 -60.0944 151° Southeast  Level FlightAware Approximate
10:49PM 14.0719 -60.0391 151° Southeast  Level FlightAware Approximate
10:50PM 13.9743 -59.9839 151° Southeast  Level FlightAware Approximate
10:51PM 13.8767 -59.9288 151° Southeast  Level FlightAware Approximate
10:52PM 13.7791 -59.8737 151° Southeast  Level FlightAware Approximate
10:53PM 13.6812 -59.8192 152° Southeast  Level FlightAware Approximate
10:54PM 13.5831 -59.7650 152° Southeast  Level FlightAware Approximate
10:55PM 13.4848 -59.7114 152° Southeast  Level FlightAware Approximate
10:56PM 13.3866 -59.6574 152° Southeast  Level FlightAware Approximate
10:57PM 13.2887 -59.6030 152° Southeast  Level FlightAware Approximate